sensor_id;sensor_type;location;lat;lon;timestamp;P1;durP1;ratioP1;P2;durP2;ratioP2
41077;SDS011;26823;42.662;23.352;2022-11-20T00:00:55;3.72;;;3.20;;
41077;SDS011;26823;42.662;23.352;2022-11-20T00:03:20;5.57;;;3.65;;
41077;SDS011;26823;42.662;23.352;2022-11-20T00:05:47;6.03;;;4.85;;
41077;SDS011;26823;42.662;23.352;2022-11-20T00:08:15;8.52;;;5.13;;
41077;SDS011;26823;42.662;23.352;2022-11-20T00:10:41;11.63;;;5.20;;
41077;SDS011;26823;42.662;23.352;2022-11-20T00:13:06;8.10;;;5.47;;
41077;SDS011;26823;42.662;23.352;2022-11-20T00:15:32;8.25;;;4.88;;
41077;SDS011;26823;42.662;23.352;2022-11-20T00:17:58;8.73;;;5.28;;
41077;SDS011;26823;42.662;23.352;2022-11-20T00:20:24;10.10;;;5.57;;
41077;SDS011;26823;42.662;23.352;2022-11-20T00:22:49;5.05;;;3.97;;
41077;SDS011;26823;42.662;23.352;2022-11-20T00:25:15;7.68;;;3.80;;
41077;SDS011;26823;42.662;23.352;2022-11-20T00:27:41;11.10;;;4.93;;
41077;SDS011;26823;42.662;23.352;2022-11-20T00:30:06;4.70;;;2.88;;
41077;SDS011;26823;42.662;23.352;2022-11-20T00:32:35;4.70;;;3.97;;
41077;SDS011;26823;42.662;23.352;2022-11-20T00:35:00;8.95;;;3.80;;
41077;SDS011;26823;42.662;23.352;2022-11-20T00:37:26;6.65;;;4.00;;
41077;SDS011;26823;42.662;23.352;2022-11-20T00:39:51;4.10;;;3.50;;
41077;SDS011;26823;42.662;23.352;2022-11-20T00:42:17;5.70;;;2.67;;
41077;SDS011;26823;42.662;23.352;2022-11-20T00:44:43;3.05;;;2.58;;
41077;SDS011;26823;42.662;23.352;2022-11-20T00:47:08;9.40;;;3.20;;
41077;SDS011;26823;42.662;23.352;2022-11-20T00:49:43;5.20;;;3.00;;
41077;SDS011;26823;42.662;23.352;2022-11-20T00:54:33;3.25;;;2.20;;
41077;SDS011;26823;42.662;23.352;2022-11-20T00:56:59;2.15;;;1.58;;
41077;SDS011;26823;42.662;23.352;2022-11-20T00:59:24;3.72;;;2.10;;
41077;SDS011;26823;42.662;23.352;2022-11-20T01:01:50;3.45;;;1.83;;
41077;SDS011;26823;42.662;23.352;2022-11-20T01:04:15;4.60;;;2.22;;
41077;SDS011;26823;42.662;23.352;2022-11-20T01:06:41;3.03;;;1.80;;
41077;SDS011;26823;42.662;23.352;2022-11-20T01:09:07;1.63;;;1.23;;
41077;SDS011;26823;42.662;23.352;2022-11-20T01:11:39;3.10;;;1.23;;
41077;SDS011;26823;42.662;23.352;2022-11-20T01:14:09;3.97;;;1.90;;
41077;SDS011;26823;42.662;23.352;2022-11-20T01:16:38;1.92;;;0.93;;
41077;SDS011;26823;42.662;23.352;2022-11-20T01:19:06;1.20;;;0.98;;
41077;SDS011;26823;42.662;23.352;2022-11-20T01:21:35;1.92;;;1.15;;
41077;SDS011;26823;42.662;23.352;2022-11-20T01:24:03;0.57;;;0.57;;
41077;SDS011;26823;42.662;23.352;2022-11-20T01:26:34;2.83;;;1.10;;
41077;SDS011;26823;42.662;23.352;2022-11-20T01:29:02;2.15;;;1.40;;
41077;SDS011;26823;42.662;23.352;2022-11-20T01:31:29;3.00;;;1.77;;
41077;SDS011;26823;42.662;23.352;2022-11-20T01:34:00;1.63;;;1.20;;
41077;SDS011;26823;42.662;23.352;2022-11-20T01:36:38;1.65;;;1.02;;
41077;SDS011;26823;42.662;23.352;2022-11-20T01:39:06;4.10;;;1.40;;
41077;SDS011;26823;42.662;23.352;2022-11-20T01:41:35;1.92;;;1.00;;
41077;SDS011;26823;42.662;23.352;2022-11-20T01:44:20;1.92;;;1.10;;
41077;SDS011;26823;42.662;23.352;2022-11-20T01:46:57;3.85;;;1.83;;
41077;SDS011;26823;42.662;23.352;2022-11-20T01:49:29;2.88;;;1.20;;
41077;SDS011;26823;42.662;23.352;2022-11-20T01:52:30;1.60;;;0.82;;
41077;SDS011;26823;42.662;23.352;2022-11-20T01:55:19;1.13;;;0.98;;
41077;SDS011;26823;42.662;23.352;2022-11-20T01:57:51;1.23;;;1.13;;
41077;SDS011;26823;42.662;23.352;2022-11-20T02:00:18;2.42;;;1.50;;
41077;SDS011;26823;42.662;23.352;2022-11-20T02:02:49;1.50;;;1.30;;
41077;SDS011;26823;42.662;23.352;2022-11-20T02:08:06;7.13;;;1.50;;
41077;SDS011;26823;42.662;23.352;2022-11-20T02:10:32;1.65;;;1.55;;
41077;SDS011;26823;42.662;23.352;2022-11-20T02:12:58;6.28;;;1.65;;
41077;SDS011;26823;42.662;23.352;2022-11-20T02:15:42;2.17;;;1.08;;
41077;SDS011;26823;42.662;23.352;2022-11-20T02:18:09;3.15;;;1.25;;
41077;SDS011;26823;42.662;23.352;2022-11-20T02:20:36;1.30;;;1.17;;
41077;SDS011;26823;42.662;23.352;2022-11-20T02:25:36;2.13;;;1.30;;
41077;SDS011;26823;42.662;23.352;2022-11-20T02:28:03;1.40;;;1.20;;
41077;SDS011;26823;42.662;23.352;2022-11-20T02:30:30;2.35;;;1.13;;
41077;SDS011;26823;42.662;23.352;2022-11-20T02:32:57;1.17;;;0.80;;
41077;SDS011;26823;42.662;23.352;2022-11-20T02:37:49;1.83;;;0.75;;
41077;SDS011;26823;42.662;23.352;2022-11-20T02:40:18;1.73;;;0.80;;
41077;SDS011;26823;42.662;23.352;2022-11-20T02:42:43;1.45;;;0.68;;
41077;SDS011;26823;42.662;23.352;2022-11-20T02:45:09;0.95;;;0.95;;
41077;SDS011;26823;42.662;23.352;2022-11-20T02:47:35;0.98;;;0.60;;
41077;SDS011;26823;42.662;23.352;2022-11-20T02:50:00;0.80;;;0.50;;
41077;SDS011;26823;42.662;23.352;2022-11-20T02:52:26;2.42;;;0.60;;
41077;SDS011;26823;42.662;23.352;2022-11-20T02:54:51;0.52;;;0.52;;
41077;SDS011;26823;42.662;23.352;2022-11-20T02:57:17;0.95;;;0.57;;
41077;SDS011;26823;42.662;23.352;2022-11-20T02:59:43;1.05;;;0.88;;
41077;SDS011;26823;42.662;23.352;2022-11-20T03:02:08;1.92;;;0.70;;
41077;SDS011;26823;42.662;23.352;2022-11-20T03:04:34;1.55;;;0.90;;
41077;SDS011;26823;42.662;23.352;2022-11-20T03:06:59;5.03;;;0.82;;
41077;SDS011;26823;42.662;23.352;2022-11-20T03:09:24;3.45;;;1.00;;
41077;SDS011;26823;42.662;23.352;2022-11-20T03:11:50;1.08;;;0.60;;
41077;SDS011;26823;42.662;23.352;2022-11-20T03:14:15;2.22;;;0.70;;
41077;SDS011;26823;42.662;23.352;2022-11-20T03:16:41;1.30;;;0.55;;
41077;SDS011;26823;42.662;23.352;2022-11-20T03:19:06;1.58;;;0.57;;
41077;SDS011;26823;42.662;23.352;2022-11-20T03:21:34;1.33;;;0.60;;
41077;SDS011;26823;42.662;23.352;2022-11-20T03:24:00;1.85;;;0.60;;
41077;SDS011;26823;42.662;23.352;2022-11-20T03:26:26;1.50;;;0.63;;
41077;SDS011;26823;42.662;23.352;2022-11-20T03:28:56;3.20;;;0.80;;
41077;SDS011;26823;42.662;23.352;2022-11-20T03:31:24;0.40;;;0.40;;
41077;SDS011;26823;42.662;23.352;2022-11-20T03:33:52;1.30;;;0.50;;
41077;SDS011;26823;42.662;23.352;2022-11-20T03:36:18;1.95;;;0.47;;
41077;SDS011;26823;42.662;23.352;2022-11-20T03:38:44;4.53;;;0.73;;
41077;SDS011;26823;42.662;23.352;2022-11-20T03:41:11;0.82;;;0.50;;
41077;SDS011;26823;42.662;23.352;2022-11-20T03:43:41;1.05;;;0.40;;
41077;SDS011;26823;42.662;23.352;2022-11-20T03:46:07;1.25;;;0.75;;
41077;SDS011;26823;42.662;23.352;2022-11-20T03:48:33;2.63;;;0.68;;
41077;SDS011;26823;42.662;23.352;2022-11-20T03:53:38;2.03;;;0.60;;
41077;SDS011;26823;42.662;23.352;2022-11-20T03:56:04;2.38;;;0.68;;
41077;SDS011;26823;42.662;23.352;2022-11-20T03:58:30;1.02;;;0.68;;
41077;SDS011;26823;42.662;23.352;2022-11-20T04:00:58;0.70;;;0.57;;
41077;SDS011;26823;42.662;23.352;2022-11-20T04:03:28;2.15;;;0.77;;
41077;SDS011;26823;42.662;23.352;2022-11-20T04:05:54;3.13;;;0.75;;
41077;SDS011;26823;42.662;23.352;2022-11-20T04:08:19;0.32;;;0.32;;
41077;SDS011;26823;42.662;23.352;2022-11-20T04:10:44;0.77;;;0.43;;
41077;SDS011;26823;42.662;23.352;2022-11-20T04:13:10;3.65;;;0.57;;
41077;SDS011;26823;42.662;23.352;2022-11-20T04:15:43;2.30;;;0.40;;
41077;SDS011;26823;42.662;23.352;2022-11-20T04:18:08;0.45;;;0.40;;
41077;SDS011;26823;42.662;23.352;2022-11-20T04:20:34;1.08;;;0.95;;
41077;SDS011;26823;42.662;23.352;2022-11-20T04:23:00;1.77;;;0.50;;
41077;SDS011;26823;42.662;23.352;2022-11-20T04:25:25;0.68;;;0.60;;
41077;SDS011;26823;42.662;23.352;2022-11-20T04:27:50;2.20;;;0.55;;
41077;SDS011;26823;42.662;23.352;2022-11-20T04:30:16;0.80;;;0.50;;
41077;SDS011;26823;42.662;23.352;2022-11-20T04:32:41;0.70;;;0.43;;
41077;SDS011;26823;42.662;23.352;2022-11-20T04:35:07;3.78;;;0.40;;
41077;SDS011;26823;42.662;23.352;2022-11-20T04:37:32;1.20;;;0.60;;
41077;SDS011;26823;42.662;23.352;2022-11-20T04:39:58;1.38;;;0.50;;
41077;SDS011;26823;42.662;23.352;2022-11-20T04:42:24;2.15;;;0.60;;
41077;SDS011;26823;42.662;23.352;2022-11-20T04:44:55;1.00;;;0.40;;
41077;SDS011;26823;42.662;23.352;2022-11-20T04:47:21;1.38;;;0.60;;
41077;SDS011;26823;42.662;23.352;2022-11-20T04:49:47;2.13;;;0.57;;
41077;SDS011;26823;42.662;23.352;2022-11-20T04:52:19;0.45;;;0.45;;
41077;SDS011;26823;42.662;23.352;2022-11-20T04:54:44;1.00;;;0.45;;
41077;SDS011;26823;42.662;23.352;2022-11-20T04:57:10;4.97;;;0.98;;
41077;SDS011;26823;42.662;23.352;2022-11-20T04:59:35;0.93;;;0.60;;
41077;SDS011;26823;42.662;23.352;2022-11-20T05:02:00;1.52;;;0.40;;
41077;SDS011;26823;42.662;23.352;2022-11-20T05:04:26;1.33;;;0.60;;
41077;SDS011;26823;42.662;23.352;2022-11-20T05:06:51;2.30;;;0.57;;
41077;SDS011;26823;42.662;23.352;2022-11-20T05:09:16;0.95;;;0.45;;
41077;SDS011;26823;42.662;23.352;2022-11-20T05:11:42;0.70;;;0.40;;
41077;SDS011;26823;42.662;23.352;2022-11-20T05:14:07;0.70;;;0.52;;
41077;SDS011;26823;42.662;23.352;2022-11-20T05:16:33;0.65;;;0.52;;
41077;SDS011;26823;42.662;23.352;2022-11-20T05:18:59;0.80;;;0.47;;
41077;SDS011;26823;42.662;23.352;2022-11-20T05:21:24;1.27;;;0.50;;
41077;SDS011;26823;42.662;23.352;2022-11-20T05:23:50;0.70;;;0.40;;
41077;SDS011;26823;42.662;23.352;2022-11-20T05:26:19;0.75;;;0.45;;
41077;SDS011;26823;42.662;23.352;2022-11-20T05:28:46;2.30;;;0.50;;
41077;SDS011;26823;42.662;23.352;2022-11-20T05:31:16;1.63;;;0.77;;
41077;SDS011;26823;42.662;23.352;2022-11-20T05:33:44;2.05;;;0.50;;
41077;SDS011;26823;42.662;23.352;2022-11-20T05:36:11;0.32;;;0.32;;
41077;SDS011;26823;42.662;23.352;2022-11-20T05:38:38;0.70;;;0.50;;
41077;SDS011;26823;42.662;23.352;2022-11-20T05:41:08;1.40;;;0.50;;
41077;SDS011;26823;42.662;23.352;2022-11-20T05:43:36;0.68;;;0.68;;
41077;SDS011;26823;42.662;23.352;2022-11-20T05:46:02;1.13;;;0.73;;
41077;SDS011;26823;42.662;23.352;2022-11-20T05:48:29;0.63;;;0.63;;
41077;SDS011;26823;42.662;23.352;2022-11-20T05:50:56;1.02;;;0.60;;
41077;SDS011;26823;42.662;23.352;2022-11-20T05:53:23;3.00;;;0.88;;
41077;SDS011;26823;42.662;23.352;2022-11-20T05:55:55;2.50;;;0.82;;
41077;SDS011;26823;42.662;23.352;2022-11-20T05:58:24;2.72;;;0.85;;
41077;SDS011;26823;42.662;23.352;2022-11-20T06:00:49;0.73;;;0.70;;
41077;SDS011;26823;42.662;23.352;2022-11-20T06:03:15;2.55;;;0.95;;
41077;SDS011;26823;42.662;23.352;2022-11-20T06:05:40;2.38;;;0.93;;
41077;SDS011;26823;42.662;23.352;2022-11-20T06:08:05;3.83;;;0.85;;
41077;SDS011;26823;42.662;23.352;2022-11-20T06:10:38;2.10;;;1.15;;
41077;SDS011;26823;42.662;23.352;2022-11-20T06:13:03;3.38;;;0.90;;
41077;SDS011;26823;42.662;23.352;2022-11-20T06:15:28;4.40;;;1.80;;
41077;SDS011;26823;42.662;23.352;2022-11-20T06:17:54;2.65;;;1.00;;
41077;SDS011;26823;42.662;23.352;2022-11-20T06:20:21;3.38;;;0.82;;
41077;SDS011;26823;42.662;23.352;2022-11-20T06:22:47;3.38;;;1.05;;
41077;SDS011;26823;42.662;23.352;2022-11-20T06:25:12;1.20;;;0.95;;
41077;SDS011;26823;42.662;23.352;2022-11-20T06:27:38;1.65;;;0.73;;
41077;SDS011;26823;42.662;23.352;2022-11-20T06:30:04;1.35;;;0.70;;
41077;SDS011;26823;42.662;23.352;2022-11-20T06:32:30;1.15;;;0.90;;
41077;SDS011;26823;42.662;23.352;2022-11-20T06:34:55;3.00;;;1.00;;
41077;SDS011;26823;42.662;23.352;2022-11-20T06:37:21;1.27;;;0.77;;
41077;SDS011;26823;42.662;23.352;2022-11-20T06:39:46;4.05;;;0.80;;
41077;SDS011;26823;42.662;23.352;2022-11-20T06:42:12;1.17;;;0.90;;
41077;SDS011;26823;42.662;23.352;2022-11-20T06:44:37;1.42;;;0.90;;
41077;SDS011;26823;42.662;23.352;2022-11-20T06:47:02;2.10;;;1.00;;
41077;SDS011;26823;42.662;23.352;2022-11-20T06:49:28;3.00;;;1.27;;
41077;SDS011;26823;42.662;23.352;2022-11-20T06:51:53;1.55;;;0.95;;
41077;SDS011;26823;42.662;23.352;2022-11-20T06:54:19;3.00;;;0.65;;
41077;SDS011;26823;42.662;23.352;2022-11-20T06:56:47;3.85;;;1.00;;
41077;SDS011;26823;42.662;23.352;2022-11-20T06:59:13;1.60;;;0.95;;
41077;SDS011;26823;42.662;23.352;2022-11-20T07:01:38;2.70;;;1.40;;
41077;SDS011;26823;42.662;23.352;2022-11-20T07:04:04;2.05;;;0.80;;
41077;SDS011;26823;42.662;23.352;2022-11-20T07:06:29;3.03;;;1.10;;
41077;SDS011;26823;42.662;23.352;2022-11-20T07:08:55;1.67;;;1.05;;
41077;SDS011;26823;42.662;23.352;2022-11-20T07:11:21;1.40;;;0.65;;
41077;SDS011;26823;42.662;23.352;2022-11-20T07:13:46;5.15;;;0.77;;
41077;SDS011;26823;42.662;23.352;2022-11-20T07:16:12;6.63;;;0.82;;
41077;SDS011;26823;42.662;23.352;2022-11-20T07:18:37;1.13;;;0.60;;
41077;SDS011;26823;42.662;23.352;2022-11-20T07:21:04;4.45;;;0.90;;
41077;SDS011;26823;42.662;23.352;2022-11-20T07:23:32;1.58;;;1.00;;
41077;SDS011;26823;42.662;23.352;2022-11-20T07:25:57;3.65;;;1.10;;
41077;SDS011;26823;42.662;23.352;2022-11-20T07:28:27;3.58;;;1.20;;
41077;SDS011;26823;42.662;23.352;2022-11-20T07:30:52;3.50;;;1.00;;
41077;SDS011;26823;42.662;23.352;2022-11-20T07:33:19;4.07;;;1.20;;
41077;SDS011;26823;42.662;23.352;2022-11-20T07:35:45;3.88;;;0.90;;
41077;SDS011;26823;42.662;23.352;2022-11-20T07:38:10;1.48;;;0.80;;
41077;SDS011;26823;42.662;23.352;2022-11-20T07:40:36;4.15;;;0.88;;
41077;SDS011;26823;42.662;23.352;2022-11-20T07:43:01;2.00;;;1.30;;
41077;SDS011;26823;42.662;23.352;2022-11-20T07:45:26;1.08;;;0.70;;
41077;SDS011;26823;42.662;23.352;2022-11-20T07:47:52;0.60;;;0.60;;
41077;SDS011;26823;42.662;23.352;2022-11-20T07:50:17;1.40;;;0.95;;
41077;SDS011;26823;42.662;23.352;2022-11-20T07:52:44;2.83;;;0.77;;
41077;SDS011;26823;42.662;23.352;2022-11-20T07:55:09;2.60;;;0.85;;
41077;SDS011;26823;42.662;23.352;2022-11-20T07:57:35;1.73;;;0.85;;
41077;SDS011;26823;42.662;23.352;2022-11-20T08:00:01;1.25;;;0.90;;
41077;SDS011;26823;42.662;23.352;2022-11-20T08:02:26;2.25;;;1.30;;
41077;SDS011;26823;42.662;23.352;2022-11-20T08:04:52;3.03;;;1.50;;
41077;SDS011;26823;42.662;23.352;2022-11-20T08:07:17;3.35;;;1.83;;
41077;SDS011;26823;42.662;23.352;2022-11-20T08:09:43;2.17;;;0.95;;
41077;SDS011;26823;42.662;23.352;2022-11-20T08:12:09;1.65;;;0.95;;
41077;SDS011;26823;42.662;23.352;2022-11-20T08:15:02;4.80;;;0.95;;
41077;SDS011;26823;42.662;23.352;2022-11-20T08:17:28;2.33;;;1.02;;
41077;SDS011;26823;42.662;23.352;2022-11-20T08:19:53;6.03;;;1.25;;
41077;SDS011;26823;42.662;23.352;2022-11-20T08:22:19;1.85;;;1.20;;
41077;SDS011;26823;42.662;23.352;2022-11-20T08:24:45;2.67;;;1.20;;
41077;SDS011;26823;42.662;23.352;2022-11-20T08:27:10;3.22;;;1.02;;
41077;SDS011;26823;42.662;23.352;2022-11-20T08:29:36;3.92;;;1.10;;
41077;SDS011;26823;42.662;23.352;2022-11-20T08:32:01;3.00;;;1.10;;
41077;SDS011;26823;42.662;23.352;2022-11-20T08:34:27;3.63;;;0.77;;
41077;SDS011;26823;42.662;23.352;2022-11-20T08:36:52;3.05;;;0.85;;
41077;SDS011;26823;42.662;23.352;2022-11-20T08:39:18;2.15;;;0.98;;
41077;SDS011;26823;42.662;23.352;2022-11-20T08:41:43;1.67;;;0.63;;
41077;SDS011;26823;42.662;23.352;2022-11-20T08:44:09;4.45;;;1.40;;
41077;SDS011;26823;42.662;23.352;2022-11-20T08:46:37;3.67;;;2.10;;
41077;SDS011;26823;42.662;23.352;2022-11-20T08:49:06;5.22;;;2.38;;
41077;SDS011;26823;42.662;23.352;2022-11-20T08:51:33;3.53;;;1.88;;
41077;SDS011;26823;42.662;23.352;2022-11-20T08:53:59;3.35;;;1.00;;
41077;SDS011;26823;42.662;23.352;2022-11-20T08:56:25;4.47;;;1.13;;
41077;SDS011;26823;42.662;23.352;2022-11-20T08:58:51;1.33;;;0.90;;
41077;SDS011;26823;42.662;23.352;2022-11-20T09:01:17;3.80;;;1.55;;
41077;SDS011;26823;42.662;23.352;2022-11-20T09:03:43;3.60;;;0.90;;
41077;SDS011;26823;42.662;23.352;2022-11-20T09:06:08;5.32;;;0.95;;
41077;SDS011;26823;42.662;23.352;2022-11-20T09:08:34;3.08;;;1.00;;
41077;SDS011;26823;42.662;23.352;2022-11-20T09:11:01;3.05;;;1.30;;
41077;SDS011;26823;42.662;23.352;2022-11-20T09:13:27;8.70;;;2.00;;
41077;SDS011;26823;42.662;23.352;2022-11-20T09:15:58;2.05;;;1.63;;
41077;SDS011;26823;42.662;23.352;2022-11-20T09:18:25;2.72;;;2.10;;
41077;SDS011;26823;42.662;23.352;2022-11-20T09:20:51;2.80;;;2.15;;
41077;SDS011;26823;42.662;23.352;2022-11-20T09:23:20;3.67;;;1.77;;
41077;SDS011;26823;42.662;23.352;2022-11-20T09:25:46;2.55;;;1.85;;
41077;SDS011;26823;42.662;23.352;2022-11-20T09:28:11;3.70;;;1.80;;
41077;SDS011;26823;42.662;23.352;2022-11-20T09:30:39;2.15;;;0.80;;
41077;SDS011;26823;42.662;23.352;2022-11-20T09:33:04;5.28;;;1.85;;
41077;SDS011;26823;42.662;23.352;2022-11-20T09:35:31;0.90;;;0.80;;
41077;SDS011;26823;42.662;23.352;2022-11-20T09:37:57;1.00;;;0.93;;
41077;SDS011;26823;42.662;23.352;2022-11-20T09:40:26;2.83;;;1.50;;
41077;SDS011;26823;42.662;23.352;2022-11-20T09:48:45;1.02;;;0.82;;
41077;SDS011;26823;42.662;23.352;2022-11-20T09:56:30;1.90;;;1.33;;
41077;SDS011;26823;42.662;23.352;2022-11-20T09:59:02;3.22;;;2.08;;
41077;SDS011;26823;42.662;23.352;2022-11-20T10:01:32;2.88;;;1.35;;
41077;SDS011;26823;42.662;23.352;2022-11-20T10:06:48;4.70;;;1.77;;
41077;SDS011;26823;42.662;23.352;2022-11-20T10:17:23;1.60;;;1.10;;
41077;SDS011;26823;42.662;23.352;2022-11-20T10:25:43;4.28;;;2.90;;
41077;SDS011;26823;42.662;23.352;2022-11-20T10:31:00;7.40;;;2.88;;
41077;SDS011;26823;42.662;23.352;2022-11-20T10:33:32;2.85;;;1.80;;
41077;SDS011;26823;42.662;23.352;2022-11-20T10:38:57;4.97;;;2.57;;
41077;SDS011;26823;42.662;23.352;2022-11-20T10:41:37;4.22;;;2.40;;
41077;SDS011;26823;42.662;23.352;2022-11-20T10:44:16;3.92;;;2.45;;
41077;SDS011;26823;42.662;23.352;2022-11-20T10:47:11;8.27;;;3.30;;
41077;SDS011;26823;42.662;23.352;2022-11-20T10:49:42;5.68;;;2.83;;
41077;SDS011;26823;42.662;23.352;2022-11-20T10:52:16;7.45;;;2.70;;
41077;SDS011;26823;42.662;23.352;2022-11-20T11:00:06;4.70;;;2.30;;
41077;SDS011;26823;42.662;23.352;2022-11-20T11:08:04;8.88;;;3.47;;
41077;SDS011;26823;42.662;23.352;2022-11-20T11:10:45;5.10;;;2.75;;
41077;SDS011;26823;42.662;23.352;2022-11-20T11:13:23;7.65;;;3.80;;
41077;SDS011;26823;42.662;23.352;2022-11-20T11:15:53;10.48;;;3.35;;
41077;SDS011;26823;42.662;23.352;2022-11-20T11:18:32;7.68;;;2.70;;
41077;SDS011;26823;42.662;23.352;2022-11-20T11:21:00;3.70;;;1.20;;
41077;SDS011;26823;42.662;23.352;2022-11-20T11:23:35;1.80;;;1.20;;
41077;SDS011;26823;42.662;23.352;2022-11-20T11:26:04;3.80;;;1.58;;
41077;SDS011;26823;42.662;23.352;2022-11-20T11:28:32;2.38;;;0.90;;
41077;SDS011;26823;42.662;23.352;2022-11-20T11:30:58;0.95;;;0.80;;
41077;SDS011;26823;42.662;23.352;2022-11-20T11:33:24;0.95;;;0.65;;
41077;SDS011;26823;42.662;23.352;2022-11-20T11:36:01;1.70;;;1.23;;
41077;SDS011;26823;42.662;23.352;2022-11-20T11:38:39;2.30;;;0.73;;
41077;SDS011;26823;42.662;23.352;2022-11-20T11:41:09;2.17;;;0.40;;
41077;SDS011;26823;42.662;23.352;2022-11-20T11:43:52;3.65;;;0.73;;
41077;SDS011;26823;42.662;23.352;2022-11-20T11:46:43;3.67;;;0.50;;
41077;SDS011;26823;42.662;23.352;2022-11-20T11:49:18;0.77;;;0.70;;
41077;SDS011;26823;42.662;23.352;2022-11-20T12:05:17;1.52;;;0.80;;
41077;SDS011;26823;42.662;23.352;2022-11-20T12:12:59;3.95;;;0.88;;
41077;SDS011;26823;42.662;23.352;2022-11-20T12:15:30;3.10;;;1.23;;
41077;SDS011;26823;42.662;23.352;2022-11-20T12:17:59;2.80;;;0.70;;
41077;SDS011;26823;42.662;23.352;2022-11-20T12:20:29;2.70;;;0.30;;
41077;SDS011;26823;42.662;23.352;2022-11-20T12:25:32;2.70;;;0.50;;
41077;SDS011;26823;42.662;23.352;2022-11-20T12:36:06;2.00;;;1.20;;
41077;SDS011;26823;42.662;23.352;2022-11-20T12:44:08;0.82;;;0.63;;
41077;SDS011;26823;42.662;23.352;2022-11-20T12:52:38;1.33;;;1.00;;
41077;SDS011;26823;42.662;23.352;2022-11-20T13:00:33;1.10;;;0.90;;
41077;SDS011;26823;42.662;23.352;2022-11-20T13:08:34;2.60;;;0.93;;
41077;SDS011;26823;42.662;23.352;2022-11-20T13:14:24;5.57;;;1.90;;
41077;SDS011;26823;42.662;23.352;2022-11-20T13:17:16;1.98;;;1.38;;
41077;SDS011;26823;42.662;23.352;2022-11-20T13:19:56;2.13;;;1.63;;
41077;SDS011;26823;42.662;23.352;2022-11-20T13:22:27;5.13;;;1.33;;
41077;SDS011;26823;42.662;23.352;2022-11-20T13:24:54;7.07;;;1.50;;
41077;SDS011;26823;42.662;23.352;2022-11-20T13:27:23;3.47;;;1.65;;
41077;SDS011;26823;42.662;23.352;2022-11-20T13:30:10;2.60;;;1.30;;
41077;SDS011;26823;42.662;23.352;2022-11-20T13:32:53;2.83;;;1.50;;
41077;SDS011;26823;42.662;23.352;2022-11-20T13:35:28;2.95;;;1.42;;
41077;SDS011;26823;42.662;23.352;2022-11-20T13:38:01;1.75;;;1.40;;
41077;SDS011;26823;42.662;23.352;2022-11-20T13:40:30;2.58;;;1.52;;
41077;SDS011;26823;42.662;23.352;2022-11-20T13:43:07;4.15;;;1.52;;
41077;SDS011;26823;42.662;23.352;2022-11-20T13:45:41;2.72;;;1.55;;
41077;SDS011;26823;42.662;23.352;2022-11-20T13:48:41;4.65;;;2.20;;
41077;SDS011;26823;42.662;23.352;2022-11-20T13:56:51;4.07;;;1.42;;
41077;SDS011;26823;42.662;23.352;2022-11-20T14:01:55;7.50;;;2.03;;
41077;SDS011;26823;42.662;23.352;2022-11-20T14:04:29;4.07;;;1.50;;
41077;SDS011;26823;42.662;23.352;2022-11-20T14:06:58;4.55;;;2.05;;
41077;SDS011;26823;42.662;23.352;2022-11-20T14:09:31;2.17;;;1.48;;
41077;SDS011;26823;42.662;23.352;2022-11-20T14:11:57;4.40;;;2.20;;
41077;SDS011;26823;42.662;23.352;2022-11-20T14:14:24;4.18;;;1.80;;
41077;SDS011;26823;42.662;23.352;2022-11-20T14:16:52;4.95;;;1.85;;
41077;SDS011;26823;42.662;23.352;2022-11-20T14:21:47;11.07;;;2.30;;
41077;SDS011;26823;42.662;23.352;2022-11-20T14:24:33;4.07;;;1.83;;
41077;SDS011;26823;42.662;23.352;2022-11-20T14:27:00;8.60;;;2.38;;
41077;SDS011;26823;42.662;23.352;2022-11-20T14:29:29;3.83;;;2.00;;
41077;SDS011;26823;42.662;23.352;2022-11-20T14:32:02;4.78;;;2.22;;
41077;SDS011;26823;42.662;23.352;2022-11-20T14:34:29;3.42;;;2.13;;
41077;SDS011;26823;42.662;23.352;2022-11-20T14:36:57;4.05;;;2.03;;
41077;SDS011;26823;42.662;23.352;2022-11-20T14:41:54;6.25;;;2.53;;
41077;SDS011;26823;42.662;23.352;2022-11-20T14:44:26;5.18;;;3.10;;
41077;SDS011;26823;42.662;23.352;2022-11-20T14:46:55;5.40;;;2.67;;
41077;SDS011;26823;42.662;23.352;2022-11-20T14:49:22;4.45;;;3.20;;
41077;SDS011;26823;42.662;23.352;2022-11-20T14:51:58;6.00;;;3.28;;
41077;SDS011;26823;42.662;23.352;2022-11-20T14:54:42;6.40;;;2.78;;
41077;SDS011;26823;42.662;23.352;2022-11-20T14:57:32;5.45;;;2.35;;
41077;SDS011;26823;42.662;23.352;2022-11-20T15:02:33;4.93;;;2.75;;
41077;SDS011;26823;42.662;23.352;2022-11-20T15:05:00;8.25;;;3.17;;
41077;SDS011;26823;42.662;23.352;2022-11-20T15:07:47;6.15;;;3.03;;
41077;SDS011;26823;42.662;23.352;2022-11-20T15:10:28;5.55;;;2.45;;
41077;SDS011;26823;42.662;23.352;2022-11-20T15:12:54;4.28;;;2.30;;
41077;SDS011;26823;42.662;23.352;2022-11-20T15:17:53;2.53;;;1.70;;
41077;SDS011;26823;42.662;23.352;2022-11-20T15:20:26;2.22;;;1.92;;
41077;SDS011;26823;42.662;23.352;2022-11-20T15:22:54;3.35;;;2.22;;
41077;SDS011;26823;42.662;23.352;2022-11-20T15:25:20;3.63;;;1.95;;
41077;SDS011;26823;42.662;23.352;2022-11-20T15:27:45;3.33;;;1.40;;
41077;SDS011;26823;42.662;23.352;2022-11-20T15:30:17;6.40;;;1.65;;
41077;SDS011;26823;42.662;23.352;2022-11-20T15:32:44;2.40;;;1.50;;
41077;SDS011;26823;42.662;23.352;2022-11-20T15:35:11;5.55;;;2.00;;
41077;SDS011;26823;42.662;23.352;2022-11-20T15:37:37;1.98;;;1.60;;
41077;SDS011;26823;42.662;23.352;2022-11-20T15:40:03;2.47;;;2.03;;
41077;SDS011;26823;42.662;23.352;2022-11-20T15:42:32;3.80;;;2.13;;
41077;SDS011;26823;42.662;23.352;2022-11-20T15:44:58;3.20;;;2.13;;
41077;SDS011;26823;42.662;23.352;2022-11-20T15:47:25;2.70;;;1.38;;
41077;SDS011;26823;42.662;23.352;2022-11-20T15:49:57;2.38;;;1.40;;
41077;SDS011;26823;42.662;23.352;2022-11-20T15:52:22;2.50;;;1.45;;
41077;SDS011;26823;42.662;23.352;2022-11-20T15:54:47;4.13;;;1.85;;
41077;SDS011;26823;42.662;23.352;2022-11-20T15:57:13;2.97;;;1.60;;
41077;SDS011;26823;42.662;23.352;2022-11-20T15:59:39;3.03;;;1.73;;
41077;SDS011;26823;42.662;23.352;2022-11-20T16:02:10;2.83;;;2.03;;
41077;SDS011;26823;42.662;23.352;2022-11-20T16:04:37;3.85;;;2.08;;
41077;SDS011;26823;42.662;23.352;2022-11-20T16:07:03;2.22;;;1.35;;
41077;SDS011;26823;42.662;23.352;2022-11-20T16:09:28;2.22;;;1.45;;
41077;SDS011;26823;42.662;23.352;2022-11-20T16:11:54;2.90;;;1.45;;
41077;SDS011;26823;42.662;23.352;2022-11-20T16:14:19;2.40;;;1.20;;
41077;SDS011;26823;42.662;23.352;2022-11-20T16:17:04;1.85;;;1.50;;
41077;SDS011;26823;42.662;23.352;2022-11-20T16:19:29;2.10;;;1.40;;
41077;SDS011;26823;42.662;23.352;2022-11-20T16:21:56;4.70;;;1.30;;
41077;SDS011;26823;42.662;23.352;2022-11-20T16:24:22;3.10;;;1.55;;
41077;SDS011;26823;42.662;23.352;2022-11-20T16:26:48;4.90;;;1.50;;
41077;SDS011;26823;42.662;23.352;2022-11-20T16:29:13;2.38;;;1.58;;
41077;SDS011;26823;42.662;23.352;2022-11-20T16:31:38;5.47;;;2.10;;
41077;SDS011;26823;42.662;23.352;2022-11-20T16:34:05;2.45;;;1.40;;
41077;SDS011;26823;42.662;23.352;2022-11-20T16:36:31;2.50;;;2.00;;
41077;SDS011;26823;42.662;23.352;2022-11-20T16:38:58;3.65;;;1.80;;
41077;SDS011;26823;42.662;23.352;2022-11-20T16:41:25;5.25;;;1.67;;
41077;SDS011;26823;42.662;23.352;2022-11-20T16:43:53;2.85;;;1.50;;
41077;SDS011;26823;42.662;23.352;2022-11-20T16:46:22;3.05;;;1.30;;
41077;SDS011;26823;42.662;23.352;2022-11-20T16:48:52;2.50;;;1.67;;
41077;SDS011;26823;42.662;23.352;2022-11-20T16:51:26;3.28;;;1.70;;